Encore — WDE5755 — position and weather

sailwx.info

Track history (hours):
 
Tides and Currents Weather Stations Pressure Air Temp Water Temp Dewpoint Dewpoint Depression Visibility Wind Speed Wind Dir Waves Ship Positions

Encore

Owner: Abbott, William R, Cotuit, MA. More information available from US FCC via Universal Licensing System and Coast Guard Vessel Documentation Center.

Last reported at 2018-May-09 19:54 UTC. Time now 2018-Jun-19 21:56 UTC.
Position N 41°38' W 070°16'.
Warning: this ship's position is 41 days out of date.

Length 14 m.

Type: Sailing vessel. MMSI: 367371230.

Date/timePositionNaut miles runAvg speedWind from/ knotsBaromVisibWave heightAir tempDewpointWater temp
2018-May-09 19:54N 41°38' W 070°16'0 0.0
2018-May-09 19:30N 41°38' W 070°16'1 1.8
2018-May-09 19:00N 41°37' W 070°17'4 7.5
2018-May-09 18:30N 41°35' W 070°20'4 7.3
2018-May-09 18:00N 41°32' W 070°24'4 7.4
2018-May-09 17:30N 41°32' W 070°29'3 7.0
2018-May-09 17:00N 41°32' W 070°34'3 6.7
2018-May-09 16:30N 41°31' W 070°38'3 5.7
2018-May-09 16:01N 41°31' W 070°41'4 7.1
2018-May-09 15:30N 41°35' W 070°41'4 7.0
2018-May-09 14:59N 41°38' W 070°41'3 7.0
2018-May-09 14:30N 41°42' W 070°40'4 8.2
2018-May-09 14:00N 41°45' W 070°36'5 0.2
2018-May-08 15:31N 41°46' W 070°30'0 0.0
2018-May-08 15:28N 41°46' W 070°30'0 0.0
2018-May-08 14:58N 41°46' W 070°30'  
Track history (hours):
 
Tides and Currents Weather Stations Pressure Air Temp Water Temp Dewpoint Dewpoint Depression Visibility Wind Speed Wind Dir Waves Ship Positions

Encore

Owner: Abbott, William R, Cotuit, MA. More information available from US FCC via Universal Licensing System and Coast Guard Vessel Documentation Center.

Last reported at 2018-May-09 19:54 UTC. Time now 2018-Jun-19 21:56 UTC.
Position N 41°38' W 070°16'.
Warning: this ship's position is 41 days out of date.

Length 14 m.

Type: Sailing vessel. MMSI: 367371230.

Date/timePositionNaut miles runAvg speedWind from/ knotsBaromVisibWave heightAir tempDewpointWater temp
2018-May-09 19:54N 41°38' W 070°16'0 0.0
2018-May-09 19:30N 41°38' W 070°16'1 1.8
2018-May-09 19:00N 41°37' W 070°17'4 7.5
2018-May-09 18:30N 41°35' W 070°20'4 7.3
2018-May-09 18:00N 41°32' W 070°24'4 7.4
2018-May-09 17:30N 41°32' W 070°29'3 7.0
2018-May-09 17:00N 41°32' W 070°34'3 6.7
2018-May-09 16:30N 41°31' W 070°38'3 5.7
2018-May-09 16:01N 41°31' W 070°41'4 7.1
2018-May-09 15:30N 41°35' W 070°41'4 7.0
2018-May-09 14:59N 41°38' W 070°41'3 7.0
2018-May-09 14:30N 41°42' W 070°40'4 8.2
2018-May-09 14:00N 41°45' W 070°36'5 0.2
2018-May-08 15:31N 41°46' W 070°30'0 0.0
2018-May-08 15:28N 41°46' W 070°30'0 0.0
2018-May-08 14:58N 41°46' W 070°30'  

Dump ship's entire track history